Time;durP1;ratioP1;P1;durP2;ratioP2;P2;SDS_P1;SDS_P2;PMS_P1;PMS_P2;Temp;Humidity;BMP_temperature;BMP_pressure;BME280_temperature;BME280_humidity;BME280_pressure;Samples;Min_cycle;Max_cycle;Signal;HPM_P1;HPM_P2
2023/03/29 00:01:32;;;;;;;;;;;;;;;;;;5005596;28;19914;-91
2023/03/29 00:04:19;;;;;;;;;;;;;;;;;;5010597;28;19928;-93
2023/03/29 00:07:06;;;;;;;;;;;;;;;;;;5023101;28;19917;-93
2023/03/29 00:09:52;;;;;;;;;;;;;;;;;;5013078;28;19924;-79
2023/03/29 00:12:39;;;;;;;;;;;;;;;;;;5014365;28;19941;-94
2023/03/29 00:15:25;;;;;;;;;;;;;;;;;;5012949;28;20314;-93
2023/03/29 00:18:11;;;;;;;;;;;;;;;;;;5004714;28;20036;-91
2023/03/29 00:20:58;;;;;;;;;;;;;;;;;;5012806;28;19913;-93
2023/03/29 00:23:44;;;;;;;;;;;;;;;;;;5021903;28;20325;-95
2023/03/29 00:26:31;;;;;;;;;;;;;;;;;;4993972;28;19914;-93
2023/03/29 00:29:17;;;;;;;;;;;;;;;;;;5003767;28;20276;-92
2023/03/29 00:32:04;;;;;;;;;;;;;;;;;;5000219;28;19924;-95
2023/03/29 00:34:50;;;;;;;;;;;;;;;;;;5016669;28;19921;-94
2023/03/29 00:37:37;;;;;;;;;;;;;;;;;;5019477;28;19934;-95
2023/03/29 00:40:23;;;;;;;;;;;;;;;;;;5013041;28;19914;-95
2023/03/29 00:43:10;;;;;;;;;;;;;;;;;;5000385;28;19913;-94
2023/03/29 00:45:56;;;;;;;;;;;;;;;;;;5013686;28;19913;-95
2023/03/29 00:48:43;;;;;;;;;;;;;;;;;;5014081;28;19914;-94
2023/03/29 00:51:30;;;;;;;;;;;;;;;;;;5008320;28;19920;-95
2023/03/29 00:54:18;;;;;;;;;;;;;;;;;;5001320;28;19922;-95
2023/03/29 00:57:05;;;;;;;;;;;;;;;;;;5008285;28;19933;-94
2023/03/29 00:59:52;;;;;;;;;;;;;;;;;;5008590;28;19989;-94
2023/03/29 01:02:38;;;;;;;;;;;;;;;;;;4992133;28;19920;-96
2023/03/29 01:05:25;;;;;;;;;;;;;;;;;;5013560;28;19929;-93
2023/03/29 01:08:16;;;;;;;;;;;;;;;;;;5015915;28;19918;-95
2023/03/29 01:11:03;;;;;;;;;;;;;;;;;;5016638;28;19913;-95
2023/03/29 01:13:49;;;;;;;;;;;;;;;;;;5007859;28;19913;-95
2023/03/29 01:16:37;;;;;;;;;;;;;;;;;;5022225;28;19922;-94
2023/03/29 01:19:23;;;;;;;;;;;;;;;;;;5020040;28;19920;-93
2023/03/29 01:22:12;;;;;;;;;;;;;;;;;;5004085;28;19924;-92
2023/03/29 01:24:59;;;;;;;;;;;;;;;;;;5004533;28;19913;-95
2023/03/29 01:27:46;;;;;;;;;;;;;;;;;;5014878;28;19924;-95
2023/03/29 01:30:33;;;;;;;;;;;;;;;;;;5011319;28;19914;-95
2023/03/29 01:33:20;;;;;;;;;;;;;;;;;;5012445;28;19913;-93
2023/03/29 01:36:06;;;;;;;;;;;;;;;;;;4991466;28;19928;-94
2023/03/29 01:38:53;;;;;;;;;;;;;;;;;;5008977;28;19913;-92
2023/03/29 01:41:39;;;;;;;;;;;;;;;;;;5004652;28;19924;-94
2023/03/29 01:44:26;;;;;;;;;;;;;;;;;;5010980;28;19920;-94
2023/03/29 01:47:12;;;;;;;;;;;;;;;;;;5012333;28;19932;-94
2023/03/29 01:49:59;;;;;;;;;;;;;;;;;;5000085;28;20370;-92
2023/03/29 01:52:45;;;;;;;;;;;;;;;;;;5005327;28;19914;-93
2023/03/29 01:55:32;;;;;;;;;;;;;;;;;;5005748;28;19944;-93
2023/03/29 01:58:18;;;;;;;;;;;;;;;;;;4998293;28;19921;-95
2023/03/29 02:01:08;;;;;;;;;;;;;;;;;;5010592;28;20004;-94
2023/03/29 02:03:55;;;;;;;;;;;;;;;;;;5015815;28;20395;-91
2023/03/29 02:06:41;;;;;;;;;;;;;;;;;;5018189;28;19921;-94
2023/03/29 02:09:28;;;;;;;;;;;;;;;;;;5014975;28;19917;-94
2023/03/29 02:12:14;;;;;;;;;;;;;;;;;;5009515;28;19920;-94
2023/03/29 02:15:01;;;;;;;;;;;;;;;;;;5007872;28;19935;-92
2023/03/29 02:17:48;;;;;;;;;;;;;;;;;;5018209;28;19926;-95
2023/03/29 02:20:37;;;;;;;;;;;;;;;;;;5021354;28;19924;-95
2023/03/29 02:23:24;;;;;;;;;;;;;;;;;;5018630;28;19917;-95
2023/03/29 02:26:10;;;;;;;;;;;;;;;;;;5012655;28;19914;-95
2023/03/29 02:28:56;;;;;;;;;;;;;;;;;;5011544;28;20365;-95
2023/03/29 02:31:43;;;;;;;;;;;;;;;;;;5013413;28;19913;-95
2023/03/29 02:34:29;;;;;;;;;;;;;;;;;;5011568;28;19978;-94
2023/03/29 02:37:17;;;;;;;;;;;;;;;;;;5007019;28;19933;-94
2023/03/29 02:40:06;;;;;;;;;;;;;;;;;;5007650;28;19921;-94
2023/03/29 02:42:54;;;;;;;;;;;;;;;;;;5007033;28;20411;-87
2023/03/29 02:45:40;;;;;;;;;;;;;;;;;;5011601;28;19914;-96
2023/03/29 02:48:27;;;;;;;;;;;;;;;;;;5010379;28;19917;-95
2023/03/29 02:51:13;;;;;;;;;;;;;;;;;;5009909;28;19940;-94
2023/03/29 02:54:01;;;;;;;;;;;;;;;;;;4995801;28;19918;-93
2023/03/29 02:56:48;;;;;;;;;;;;;;;;;;4985833;28;19990;-93
2023/03/29 02:59:35;;;;;;;;;;;;;;;;;;5006819;28;19922;-94
2023/03/29 03:02:21;;;;;;;;;;;;;;;;;;5008772;28;19913;-94
2023/03/29 03:05:08;;;;;;;;;;;;;;;;;;5009768;28;19932;-95
2023/03/29 03:07:57;;;;;;;;;;;;;;;;;;5017694;28;19924;-94
2023/03/29 03:10:44;;;;;;;;;;;;;;;;;;5017717;28;19921;-94
2023/03/29 03:13:31;;;;;;;;;;;;;;;;;;5011174;28;19914;-95
2023/03/29 03:16:17;;;;;;;;;;;;;;;;;;4995474;28;19926;-96
2023/03/29 03:19:04;;;;;;;;;;;;;;;;;;4999768;28;19918;-94
2023/03/29 03:21:50;;;;;;;;;;;;;;;;;;4986695;28;19918;-93
2023/03/29 03:24:37;;;;;;;;;;;;;;;;;;4992542;28;19914;-94
2023/03/29 03:27:23;;;;;;;;;;;;;;;;;;4986721;28;19921;-93
2023/03/29 03:30:10;;;;;;;;;;;;;;;;;;4978963;28;19925;-94
2023/03/29 03:33:03;;;;;;;;;;;;;;;;;;5001262;28;19922;-93
2023/03/29 03:35:49;;;;;;;;;;;;;;;;;;4978302;28;19937;-90
2023/03/29 03:38:36;;;;;;;;;;;;;;;;;;4992493;28;20506;-88
2023/03/29 03:41:24;;;;;;;;;;;;;;;;;;4978843;28;19924;-92
2023/03/29 03:44:12;;;;;;;;;;;;;;;;;;5009919;28;20362;-91
2023/03/29 03:46:58;;;;;;;;;;;;;;;;;;4980216;28;19918;-91
2023/03/29 03:49:45;;;;;;;;;;;;;;;;;;4982206;28;19945;-90
2023/03/29 03:52:31;;;;;;;;;;;;;;;;;;4989587;28;19914;-94
2023/03/29 03:55:18;;;;;;;;;;;;;;;;;;4996952;28;19920;-95
2023/03/29 03:58:06;;;;;;;;;;;;;;;;;;5000129;28;19929;-94
2023/03/29 04:00:53;;;;;;;;;;;;;;;;;;4994861;28;20348;-95
2023/03/29 04:03:40;;;;;;;;;;;;;;;;;;4985184;28;19925;-95
2023/03/29 04:06:29;;;;;;;;;;;;;;;;;;4996338;28;19921;-94
2023/03/29 04:09:16;;;;;;;;;;;;;;;;;;4978272;28;19922;-89
2023/03/29 04:12:03;;;;;;;;;;;;;;;;;;4980157;28;19914;-91
2023/03/29 04:14:49;;;;;;;;;;;;;;;;;;5003322;28;19926;-91
2023/03/29 04:17:36;;;;;;;;;;;;;;;;;;4991286;28;19932;-91
2023/03/29 04:20:23;;;;;;;;;;;;;;;;;;4985655;28;19913;-93
2023/03/29 04:23:09;;;;;;;;;;;;;;;;;;5005459;28;19924;-90
2023/03/29 04:25:56;;;;;;;;;;;;;;;;;;5007418;28;19917;-92
2023/03/29 04:28:42;;;;;;;;;;;;;;;;;;5006489;28;19997;-90
2023/03/29 04:31:29;;;;;;;;;;;;;;;;;;5006123;28;19921;-90
2023/03/29 04:34:15;;;;;;;;;;;;;;;;;;4992512;28;20384;-90
2023/03/29 04:37:08;;;;;;;;;;;;;;;;;;4997650;28;20289;-91
2023/03/29 04:39:56;;;;;;;;;;;;;;;;;;5003804;28;19925;-90
2023/03/29 04:42:43;;;;;;;;;;;;;;;;;;4992306;28;19924;-91
2023/03/29 04:45:30;;;;;;;;;;;;;;;;;;5003675;28;19918;-90
2023/03/29 04:48:16;;;;;;;;;;;;;;;;;;5004043;28;19918;-91
2023/03/29 04:51:03;;;;;;;;;;;;;;;;;;4996503;28;19924;-90
2023/03/29 04:53:49;;;;;;;;;;;;;;;;;;5001923;28;20746;-91
2023/03/29 04:56:36;;;;;;;;;;;;;;;;;;5005494;28;19921;-93
2023/03/29 04:59:23;;;;;;;;;;;;;;;;;;5004066;28;19924;-92
2023/03/29 05:02:09;;;;;;;;;;;;;;;;;;5009919;28;20001;-92
2023/03/29 05:04:56;;;;;;;;;;;;;;;;;;5007792;28;19940;-93
2023/03/29 05:07:43;;;;;;;;;;;;;;;;;;5009169;28;19920;-93
2023/03/29 05:10:29;;;;;;;;;;;;;;;;;;5004691;28;19938;-93
2023/03/29 05:13:16;;;;;;;;;;;;;;;;;;5004018;28;19913;-93
2023/03/29 05:16:03;;;;;;;;;;;;;;;;;;5011415;28;19937;-93
2023/03/29 05:18:50;;;;;;;;;;;;;;;;;;5005242;28;19914;-93
2023/03/29 05:21:37;;;;;;;;;;;;;;;;;;5009020;28;19918;-92
2023/03/29 05:24:23;;;;;;;;;;;;;;;;;;5000146;28;20266;-93
2023/03/29 05:27:10;;;;;;;;;;;;;;;;;;5010062;28;19917;-92
2023/03/29 05:29:57;;;;;;;;;;;;;;;;;;5009198;28;19925;-93
2023/03/29 05:32:43;;;;;;;;;;;;;;;;;;4996727;28;19921;-93
2023/03/29 05:35:30;;;;;;;;;;;;;;;;;;5002123;28;20369;-92
2023/03/29 05:38:16;;;;;;;;;;;;;;;;;;4998252;28;19921;-92
2023/03/29 05:41:03;;;;;;;;;;;;;;;;;;4998479;28;19920;-93
2023/03/29 05:43:50;;;;;;;;;;;;;;;;;;5011727;28;19923;-92
2023/03/29 05:46:36;;;;;;;;;;;;;;;;;;5003718;28;19922;-93
2023/03/29 05:49:23;;;;;;;;;;;;;;;;;;5005331;28;20336;-92
2023/03/29 05:52:09;;;;;;;;;;;;;;;;;;5004749;28;19914;-93
2023/03/29 05:54:56;;;;;;;;;;;;;;;;;;5014680;28;20464;-93
2023/03/29 05:57:42;;;;;;;;;;;;;;;;;;5009522;28;19926;-91
2023/03/29 06:00:30;;;;;;;;;;;;;;;;;;5003924;28;19918;-92
2023/03/29 06:03:20;;;;;;;;;;;;;;;;;;4993209;28;19929;-92
2023/03/29 06:06:08;;;;;;;;;;;;;;;;;;5003243;28;19924;-92
2023/03/29 06:08:54;;;;;;;;;;;;;;;;;;5000463;28;19925;-91
2023/03/29 06:11:41;;;;;;;;;;;;;;;;;;5003623;28;19928;-91
2023/03/29 06:14:27;;;;;;;;;;;;;;;;;;5001796;28;19925;-93
2023/03/29 06:17:14;;;;;;;;;;;;;;;;;;5007796;28;19929;-93
2023/03/29 06:20:00;;;;;;;;;;;;;;;;;;5004024;28;19918;-89
2023/03/29 06:22:47;;;;;;;;;;;;;;;;;;5000717;28;19921;-90
2023/03/29 06:25:34;;;;;;;;;;;;;;;;;;5000167;28;19924;-92
2023/03/29 06:28:20;;;;;;;;;;;;;;;;;;5002513;28;19928;-88
2023/03/29 06:31:08;;;;;;;;;;;;;;;;;;4989645;28;21099;-81
2023/03/29 06:33:57;;;;;;;;;;;;;;;;;;4995725;28;19929;-79
2023/03/29 06:36:44;;;;;;;;;;;;;;;;;;5004069;28;19933;-80
2023/03/29 06:39:31;;;;;;;;;;;;;;;;;;4999308;28;20284;-80
2023/03/29 06:42:18;;;;;;;;;;;;;;;;;;5006109;28;19917;-80
2023/03/29 06:45:05;;;;;;;;;;;;;;;;;;5005247;28;19918;-79
2023/03/29 06:47:51;;;;;;;;;;;;;;;;;;5004799;28;19924;-79
2023/03/29 06:50:38;;;;;;;;;;;;;;;;;;5002172;28;19920;-80
2023/03/29 06:53:25;;;;;;;;;;;;;;;;;;5006053;28;19917;-80
2023/03/29 06:56:11;;;;;;;;;;;;;;;;;;5008910;28;19918;-81
2023/03/29 06:58:58;;;;;;;;;;;;;;;;;;5002757;28;19917;-79
2023/03/29 07:01:46;;;;;;;;;;;;;;;;;;4993337;28;19921;-80
2023/03/29 07:04:33;;;;;;;;;;;;;;;;;;5006468;28;19925;-80
2023/03/29 07:07:21;;;;;;;;;;;;;;;;;;5002356;28;19918;-78
2023/03/29 07:10:07;;;;;;;;;;;;;;;;;;5000605;28;19913;-79
2023/03/29 07:12:53;;;;;;;;;;;;;;;;;;4989134;28;20411;-77
2023/03/29 07:15:40;;;;;;;;;;;;;;;;;;5002011;28;19933;-79
2023/03/29 07:18:27;;;;;;;;;;;;;;;;;;4994102;28;19933;-79
2023/03/29 07:21:13;;;;;;;;;;;;;;;;;;4986858;28;19921;-79
2023/03/29 07:24:02;;;;;;;;;;;;;;;;;;4990151;28;19925;-78
2023/03/29 07:26:49;;;;;;;;;;;;;;;;;;5001932;28;20603;-79
2023/03/29 07:29:36;;;;;;;;;;;;;;;;;;5002910;28;19948;-78
2023/03/29 07:32:22;;;;;;;;;;;;;;;;;;5005588;28;19917;-79
2023/03/29 07:35:09;;;;;;;;;;;;;;;;;;5001183;28;20686;-78
2023/03/29 07:37:56;;;;;;;;;;;;;;;;;;4992507;28;20537;-78
2023/03/29 07:40:42;;;;;;;;;;;;;;;;;;5006150;28;20419;-78
2023/03/29 07:43:29;;;;;;;;;;;;;;;;;;4996746;28;19913;-78
2023/03/29 07:46:15;;;;;;;;;;;;;;;;;;5003360;28;19917;-78
2023/03/29 07:49:02;;;;;;;;;;;;;;;;;;5003489;28;19924;-78
2023/03/29 07:51:48;;;;;;;;;;;;;;;;;;4996888;28;19921;-78
2023/03/29 07:54:35;;;;;;;;;;;;;;;;;;4999984;28;20650;-77
2023/03/29 07:57:21;;;;;;;;;;;;;;;;;;4999057;28;19925;-78
2023/03/29 08:00:14;;;;;;;;;;;;;;;;;;4996957;28;19940;-78
2023/03/29 08:03:02;;;;;;;;;;;;;;;;;;5004507;28;19928;-77
2023/03/29 08:05:49;;;;;;;;;;;;;;;;;;5002889;28;19922;-79
2023/03/29 08:08:35;;;;;;;;;;;;;;;;;;5004897;28;19922;-78
2023/03/29 08:11:23;;;;;;;;;;;;;;;;;;4996805;28;19922;-78
2023/03/29 08:14:10;;;;;;;;;;;;;;;;;;4999946;28;20467;-78
2023/03/29 08:16:56;;;;;;;;;;;;;;;;;;5003419;28;20389;-77
2023/03/29 08:19:43;;;;;;;;;;;;;;;;;;4994550;28;20214;-77
2023/03/29 08:22:29;;;;;;;;;;;;;;;;;;4997580;28;19918;-77
2023/03/29 08:25:16;;;;;;;;;;;;;;;;;;5001075;28;20373;-77
2023/03/29 08:28:02;;;;;;;;;;;;;;;;;;5002143;28;19914;-78
2023/03/29 08:30:49;;;;;;;;;;;;;;;;;;5003164;28;19918;-78
2023/03/29 08:33:35;;;;;;;;;;;;;;;;;;4992833;28;20401;-78
2023/03/29 08:36:22;;;;;;;;;;;;;;;;;;4985941;28;19922;-78
2023/03/29 08:39:08;;;;;;;;;;;;;;;;;;5004620;28;19914;-78
2023/03/29 08:41:56;;;;;;;;;;;;;;;;;;4996912;28;20377;-77
2023/03/29 08:44:43;;;;;;;;;;;;;;;;;;4989269;28;20445;-78
2023/03/29 08:47:29;;;;;;;;;;;;;;;;;;4999734;28;19914;-78
2023/03/29 08:50:16;;;;;;;;;;;;;;;;;;4998191;28;19922;-78
2023/03/29 08:53:02;;;;;;;;;;;;;;;;;;4996541;28;19923;-78
2023/03/29 08:55:49;;;;;;;;;;;;;;;;;;5002179;28;19929;-78
2023/03/29 08:58:35;;;;;;;;;;;;;;;;;;5002683;28;19930;-78
2023/03/29 09:01:22;;;;;;;;;;;;;;;;;;4998343;28;19917;-78
2023/03/29 09:04:09;;;;;;;;;;;;;;;;;;4999279;28;20377;-78
2023/03/29 09:06:56;;;;;;;;;;;;;;;;;;5002145;28;20399;-78
2023/03/29 09:09:43;;;;;;;;;;;;;;;;;;5003446;28;19920;-78
2023/03/29 09:12:29;;;;;;;;;;;;;;;;;;5004675;28;19917;-78
2023/03/29 09:15:18;;;;;;;;;;;;;;;;;;5004806;28;19937;-78
2023/03/29 09:18:05;;;;;;;;;;;;;;;;;;5002462;28;20353;-78
2023/03/29 09:20:51;;;;;;;;;;;;;;;;;;5004175;28;20504;-78
2023/03/29 09:23:38;;;;;;;;;;;;;;;;;;4985179;28;19918;-78
2023/03/29 09:26:25;;;;;;;;;;;;;;;;;;4993130;28;20009;-78
2023/03/29 09:29:12;;;;;;;;;;;;;;;;;;5003505;28;19913;-77
2023/03/29 09:31:58;;;;;;;;;;;;;;;;;;4991297;28;19922;-78
2023/03/29 09:34:45;;;;;;;;;;;;;;;;;;5001236;28;19918;-78
2023/03/29 09:37:31;;;;;;;;;;;;;;;;;;4982853;28;19925;-78
2023/03/29 09:40:18;;;;;;;;;;;;;;;;;;5004965;28;20484;-78
2023/03/29 09:43:04;;;;;;;;;;;;;;;;;;4992722;28;19924;-78
2023/03/29 09:45:51;;;;;;;;;;;;;;;;;;5001717;28;19936;-78
2023/03/29 09:48:37;;;;;;;;;;;;;;;;;;4998950;28;19913;-78
2023/03/29 09:51:24;;;;;;;;;;;;;;;;;;4994540;28;19917;-78
2023/03/29 09:54:11;;;;;;;;;;;;;;;;;;5004097;28;20297;-78
2023/03/29 09:56:57;;;;;;;;;;;;;;;;;;4994031;28;19932;-81
2023/03/29 09:59:44;;;;;;;;;;;;;;;;;;5001985;28;19918;-78
2023/03/29 10:02:31;;;;;;;;;;;;;;;;;;5000675;28;19925;-77
2023/03/29 10:05:17;;;;;;;;;;;;;;;;;;5002186;28;19921;-77
2023/03/29 10:08:04;;;;;;;;;;;;;;;;;;4986466;28;19917;-77
2023/03/29 10:10:50;;;;;;;;;;;;;;;;;;5003244;28;20043;-77
2023/03/29 10:13:37;;;;;;;;;;;;;;;;;;5000845;28;20413;-77
2023/03/29 10:16:24;;;;;;;;;;;;;;;;;;4992397;28;19948;-77
2023/03/29 10:19:11;;;;;;;;;;;;;;;;;;4997227;28;19924;-77
2023/03/29 10:21:57;;;;;;;;;;;;;;;;;;5006474;28;19924;-77
2023/03/29 10:24:44;;;;;;;;;;;;;;;;;;5004154;28;19925;-77
2023/03/29 10:27:33;;;;;;;;;;;;;;;;;;5007753;28;20510;-77
2023/03/29 10:30:20;;;;;;;;;;;;;;;;;;5000074;28;19922;-77
2023/03/29 10:33:06;;;;;;;;;;;;;;;;;;4991918;28;19917;-78
2023/03/29 10:35:53;;;;;;;;;;;;;;;;;;5002118;28;19917;-78
2023/03/29 10:38:39;;;;;;;;;;;;;;;;;;5004063;28;19925;-78
2023/03/29 10:41:26;;;;;;;;;;;;;;;;;;4997523;28;19948;-77
2023/03/29 10:44:12;;;;;;;;;;;;;;;;;;4986862;28;20412;-78
2023/03/29 10:46:59;;;;;;;;;;;;;;;;;;5001836;28;19920;-78
2023/03/29 10:49:45;;;;;;;;;;;;;;;;;;5002336;28;19922;-77
2023/03/29 10:52:32;;;;;;;;;;;;;;;;;;4991261;28;19928;-77
2023/03/29 10:55:18;;;;;;;;;;;;;;;;;;5000443;28;19921;-78
2023/03/29 10:58:05;;;;;;;;;;;;;;;;;;4998896;28;19934;-78
2023/03/29 11:00:52;;;;;;;;;;;;;;;;;;5001508;28;19932;-78
2023/03/29 11:03:39;;;;;;;;;;;;;;;;;;5005410;28;19918;-77
2023/03/29 11:06:25;;;;;;;;;;;;;;;;;;5003407;28;19928;-78
2023/03/29 11:09:12;;;;;;;;;;;;;;;;;;5003236;28;19921;-78
2023/03/29 11:12:00;;;;;;;;;;;;;;;;;;5003685;28;19917;-77
2023/03/29 11:14:46;;;;;;;;;;;;;;;;;;4927821;28;2019794;-77
2023/03/29 11:17:33;;;;;;;;;;;;;;;;;;5006794;28;19936;-77
2023/03/29 11:20:20;;;;;;;;;;;;;;;;;;5007214;28;19925;-77
2023/03/29 11:23:06;;;;;;;;;;;;;;;;;;5006264;28;20328;-78
2023/03/29 11:25:53;;;;;;;;;;;;;;;;;;4986534;28;19924;-76
2023/03/29 11:28:40;;;;;;;;;;;;;;;;;;4999642;28;19925;-76
2023/03/29 11:31:26;;;;;;;;;;;;;;;;;;5001238;28;19925;-77
2023/03/29 11:34:13;;;;;;;;;;;;;;;;;;5000659;28;19921;-76
2023/03/29 11:36:59;;;;;;;;;;;;;;;;;;5008140;28;19929;-76
2023/03/29 11:39:46;;;;;;;;;;;;;;;;;;5003734;28;19924;-77
2023/03/29 11:42:32;;;;;;;;;;;;;;;;;;5000390;28;19928;-77
2023/03/29 11:45:19;;;;;;;;;;;;;;;;;;5001293;28;19937;-77
2023/03/29 11:48:06;;;;;;;;;;;;;;;;;;4989618;28;19921;-77
2023/03/29 11:50:52;;;;;;;;;;;;;;;;;;5000987;28;19924;-77
2023/03/29 11:53:39;;;;;;;;;;;;;;;;;;4997995;28;19920;-77
2023/03/29 11:56:28;;;;;;;;;;;;;;;;;;4998884;28;19913;-76
2023/03/29 11:59:14;;;;;;;;;;;;;;;;;;5000048;28;19930;-76
2023/03/29 12:02:01;;;;;;;;;;;;;;;;;;5001008;28;19928;-76
2023/03/29 12:04:47;;;;;;;;;;;;;;;;;;5004443;28;20633;-77
2023/03/29 12:07:34;;;;;;;;;;;;;;;;;;4994121;28;19925;-76
2023/03/29 12:10:20;;;;;;;;;;;;;;;;;;5003378;28;19917;-76
2023/03/29 12:13:07;;;;;;;;;;;;;;;;;;4992903;28;19918;-76
2023/03/29 12:15:53;;;;;;;;;;;;;;;;;;4997510;28;20416;-76
2023/03/29 12:18:40;;;;;;;;;;;;;;;;;;5001515;28;20394;-77
2023/03/29 12:21:26;;;;;;;;;;;;;;;;;;4992910;28;20451;-75
2023/03/29 12:24:13;;;;;;;;;;;;;;;;;;4998584;28;22322;-76
2023/03/29 12:27:00;;;;;;;;;;;;;;;;;;4994833;28;20396;-76
2023/03/29 12:29:46;;;;;;;;;;;;;;;;;;4998771;28;19924;-76
2023/03/29 12:32:33;;;;;;;;;;;;;;;;;;4990885;28;19925;-76
2023/03/29 12:35:19;;;;;;;;;;;;;;;;;;5003578;28;19917;-76
2023/03/29 12:38:07;;;;;;;;;;;;;;;;;;4994350;28;19929;-76
2023/03/29 12:40:53;;;;;;;;;;;;;;;;;;5009915;28;19924;-77
2023/03/29 12:43:42;;;;;;;;;;;;;;;;;;5005432;28;19924;-76
2023/03/29 12:46:28;;;;;;;;;;;;;;;;;;4993795;28;20391;-76
2023/03/29 12:49:15;;;;;;;;;;;;;;;;;;4992966;28;19917;-76
2023/03/29 12:52:02;;;;;;;;;;;;;;;;;;4995120;28;19913;-77
2023/03/29 12:54:48;;;;;;;;;;;;;;;;;;5005506;28;20446;-77
2023/03/29 12:57:35;;;;;;;;;;;;;;;;;;5001635;28;19930;-77
2023/03/29 13:00:21;;;;;;;;;;;;;;;;;;4998826;28;20860;-76
2023/03/29 13:03:08;;;;;;;;;;;;;;;;;;5004736;28;19928;-76
2023/03/29 13:05:55;;;;;;;;;;;;;;;;;;4997687;28;19918;-76
2023/03/29 13:08:41;;;;;;;;;;;;;;;;;;5002751;28;19917;-77
2023/03/29 13:11:28;;;;;;;;;;;;;;;;;;5005168;28;19941;-77
2023/03/29 13:14:15;;;;;;;;;;;;;;;;;;4997429;28;19922;-76
2023/03/29 13:17:01;;;;;;;;;;;;;;;;;;5004675;28;19935;-76
2023/03/29 13:19:48;;;;;;;;;;;;;;;;;;5004629;28;19917;-76
2023/03/29 13:22:34;;;;;;;;;;;;;;;;;;5003547;28;19917;-76
2023/03/29 13:25:21;;;;;;;;;;;;;;;;;;4998449;28;19920;-77
2023/03/29 13:28:07;;;;;;;;;;;;;;;;;;4992872;28;19932;-76
2023/03/29 13:30:54;;;;;;;;;;;;;;;;;;5005066;28;19917;-78
2023/03/29 13:33:41;;;;;;;;;;;;;;;;;;4992418;28;20317;-76
2023/03/29 13:36:27;;;;;;;;;;;;;;;;;;4998425;28;20403;-76
2023/03/29 13:39:14;;;;;;;;;;;;;;;;;;4998560;28;19936;-76
2023/03/29 13:42:00;;;;;;;;;;;;;;;;;;4996101;28;19925;-76
2023/03/29 13:44:47;;;;;;;;;;;;;;;;;;5005615;28;19924;-77
2023/03/29 13:47:35;;;;;;;;;;;;;;;;;;4996391;28;19924;-77
2023/03/29 13:50:21;;;;;;;;;;;;;;;;;;4996697;28;19921;-77
2023/03/29 13:53:08;;;;;;;;;;;;;;;;;;4998743;28;19925;-76
2023/03/29 13:55:55;;;;;;;;;;;;;;;;;;4996938;28;20342;-77
2023/03/29 13:58:41;;;;;;;;;;;;;;;;;;5005055;28;19926;-77
2023/03/29 14:01:28;;;;;;;;;;;;;;;;;;4994478;28;20392;-77
2023/03/29 14:04:14;;;;;;;;;;;;;;;;;;4999889;28;19926;-77
2023/03/29 14:07:01;;;;;;;;;;;;;;;;;;4997192;28;19918;-77
2023/03/29 14:09:47;;;;;;;;;;;;;;;;;;5000289;28;19924;-77
2023/03/29 14:12:34;;;;;;;;;;;;;;;;;;5002388;28;20369;-77
2023/03/29 14:15:20;;;;;;;;;;;;;;;;;;4984392;28;19938;-77
2023/03/29 14:18:07;;;;;;;;;;;;;;;;;;4998895;28;19925;-77
2023/03/29 14:20:53;;;;;;;;;;;;;;;;;;4992895;28;19921;-77
2023/03/29 14:23:40;;;;;;;;;;;;;;;;;;5001072;28;19925;-77
2023/03/29 14:26:29;;;;;;;;;;;;;;;;;;4994366;28;20584;-77
2023/03/29 14:29:17;;;;;;;;;;;;;;;;;;5001868;28;19921;-77
2023/03/29 14:32:03;;;;;;;;;;;;;;;;;;4992540;28;20603;-77
2023/03/29 14:34:50;;;;;;;;;;;;;;;;;;5002574;28;19929;-78
2023/03/29 14:37:37;;;;;;;;;;;;;;;;;;5003635;28;19925;-77
2023/03/29 14:40:24;;;;;;;;;;;;;;;;;;5002272;28;19924;-76
2023/03/29 14:43:11;;;;;;;;;;;;;;;;;;4994383;28;19921;-77
2023/03/29 14:45:57;;;;;;;;;;;;;;;;;;4996551;28;19921;-76
2023/03/29 14:48:44;;;;;;;;;;;;;;;;;;5001023;28;20381;-77
2023/03/29 14:51:30;;;;;;;;;;;;;;;;;;5002095;28;19917;-76
2023/03/29 14:54:17;;;;;;;;;;;;;;;;;;4989198;28;19928;-77
2023/03/29 14:57:05;;;;;;;;;;;;;;;;;;4997435;28;19925;-77
2023/03/29 14:59:55;;;;;;;;;;;;;;;;;;4995892;28;20409;-76
2023/03/29 15:02:41;;;;;;;;;;;;;;;;;;4993432;28;19928;-76
2023/03/29 15:05:28;;;;;;;;;;;;;;;;;;5003063;28;19933;-77
2023/03/29 15:08:15;;;;;;;;;;;;;;;;;;4997034;28;20304;-77
2023/03/29 15:11:01;;;;;;;;;;;;;;;;;;5002065;28;19955;-77
2023/03/29 15:13:48;;;;;;;;;;;;;;;;;;4993019;28;20338;-78
2023/03/29 15:16:34;;;;;;;;;;;;;;;;;;5001148;28;19913;-76
2023/03/29 15:19:21;;;;;;;;;;;;;;;;;;4991219;28;19932;-77
2023/03/29 15:22:09;;;;;;;;;;;;;;;;;;5005876;28;19917;-76
2023/03/29 15:24:56;;;;;;;;;;;;;;;;;;5007133;28;19937;-78
2023/03/29 15:27:42;;;;;;;;;;;;;;;;;;4994577;28;19928;-77
2023/03/29 15:30:30;;;;;;;;;;;;;;;;;;5005156;28;19921;-76
2023/03/29 15:33:16;;;;;;;;;;;;;;;;;;4997152;28;19928;-78
2023/03/29 15:36:03;;;;;;;;;;;;;;;;;;4998851;28;19917;-77
2023/03/29 15:38:50;;;;;;;;;;;;;;;;;;5002261;28;19925;-77
2023/03/29 15:41:36;;;;;;;;;;;;;;;;;;5000749;28;19918;-75
2023/03/29 15:44:23;;;;;;;;;;;;;;;;;;4988242;28;19922;-79
2023/03/29 15:47:10;;;;;;;;;;;;;;;;;;4999289;28;19917;-75
2023/03/29 15:49:57;;;;;;;;;;;;;;;;;;5000658;28;19963;-76
2023/03/29 15:52:43;;;;;;;;;;;;;;;;;;5002260;28;19913;-75
2023/03/29 15:55:30;;;;;;;;;;;;;;;;;;5000906;28;19924;-76
2023/03/29 15:58:17;;;;;;;;;;;;;;;;;;5004624;28;19922;-79
2023/03/29 16:01:09;;;;;;;;;;;;;;;;;;4989873;28;19928;-76
2023/03/29 16:03:56;;;;;;;;;;;;;;;;;;4999423;28;19931;-76
2023/03/29 16:06:43;;;;;;;;;;;;;;;;;;4992560;28;19918;-77
2023/03/29 16:09:30;;;;;;;;;;;;;;;;;;5001904;28;20373;-76
2023/03/29 16:12:16;;;;;;;;;;;;;;;;;;4999788;28;19936;-75
2023/03/29 16:15:03;;;;;;;;;;;;;;;;;;5005335;28;19960;-76
2023/03/29 16:17:49;;;;;;;;;;;;;;;;;;5003392;28;19930;-77
2023/03/29 16:20:37;;;;;;;;;;;;;;;;;;5001540;28;20289;-76
2023/03/29 16:23:23;;;;;;;;;;;;;;;;;;5001792;28;19929;-76
2023/03/29 16:26:10;;;;;;;;;;;;;;;;;;5002390;28;19936;-77
2023/03/29 16:28:56;;;;;;;;;;;;;;;;;;5000357;28;19920;-77
2023/03/29 16:31:43;;;;;;;;;;;;;;;;;;5003448;28;20457;-77
2023/03/29 16:34:29;;;;;;;;;;;;;;;;;;4999416;28;19921;-77
2023/03/29 16:37:16;;;;;;;;;;;;;;;;;;4996725;28;19929;-77
2023/03/29 16:40:06;;;;;;;;;;;;;;;;;;5000302;28;20396;-76
2023/03/29 16:42:52;;;;;;;;;;;;;;;;;;5000816;28;19984;-77
2023/03/29 16:45:39;;;;;;;;;;;;;;;;;;4996500;28;19914;-79
2023/03/29 16:48:25;;;;;;;;;;;;;;;;;;4999559;28;19921;-76
2023/03/29 16:51:12;;;;;;;;;;;;;;;;;;5000599;28;19924;-78
2023/03/29 16:53:59;;;;;;;;;;;;;;;;;;4997423;28;19932;-77
2023/03/29 16:56:46;;;;;;;;;;;;;;;;;;5004342;28;19960;-76
2023/03/29 16:59:32;;;;;;;;;;;;;;;;;;4988803;28;19928;-77
2023/03/29 17:02:19;;;;;;;;;;;;;;;;;;5003309;28;20424;-77
2023/03/29 17:05:06;;;;;;;;;;;;;;;;;;4997695;28;19924;-75
2023/03/29 17:07:52;;;;;;;;;;;;;;;;;;4998679;28;20374;-76
2023/03/29 17:10:39;;;;;;;;;;;;;;;;;;4999437;28;19921;-77
2023/03/29 17:13:26;;;;;;;;;;;;;;;;;;4995514;28;19924;-77
2023/03/29 17:16:12;;;;;;;;;;;;;;;;;;4987811;28;20668;-76
2023/03/29 17:18:59;;;;;;;;;;;;;;;;;;5001981;28;19925;-77
2023/03/29 17:21:45;;;;;;;;;;;;;;;;;;4997227;28;20032;-76
2023/03/29 17:24:32;;;;;;;;;;;;;;;;;;5004286;28;19921;-77
2023/03/29 17:27:18;;;;;;;;;;;;;;;;;;4995412;28;19918;-77
2023/03/29 17:30:05;;;;;;;;;;;;;;;;;;4993794;28;19925;-77
2023/03/29 17:32:52;;;;;;;;;;;;;;;;;;4994129;28;19922;-77
2023/03/29 17:35:38;;;;;;;;;;;;;;;;;;5004985;28;20383;-78
2023/03/29 17:38:27;;;;;;;;;;;;;;;;;;4996951;28;19929;-78
2023/03/29 17:41:14;;;;;;;;;;;;;;;;;;5003829;28;19928;-78
2023/03/29 17:44:01;;;;;;;;;;;;;;;;;;4993153;28;19921;-78
2023/03/29 17:46:47;;;;;;;;;;;;;;;;;;4997369;28;19927;-77
2023/03/29 17:49:34;;;;;;;;;;;;;;;;;;4993167;28;19924;-77
2023/03/29 17:52:20;;;;;;;;;;;;;;;;;;4998867;28;20420;-76
2023/03/29 17:55:09;;;;;;;;;;;;;;;;;;5004091;28;19925;-76
2023/03/29 17:57:56;;;;;;;;;;;;;;;;;;5002578;28;20297;-77
2023/03/29 18:00:42;;;;;;;;;;;;;;;;;;4999700;28;19928;-77
2023/03/29 18:03:29;;;;;;;;;;;;;;;;;;4997812;28;19944;-76
2023/03/29 18:06:17;;;;;;;;;;;;;;;;;;4994128;28;19927;-78
2023/03/29 18:09:03;;;;;;;;;;;;;;;;;;5003580;28;19921;-75
2023/03/29 18:11:49;;;;;;;;;;;;;;;;;;4998076;28;19917;-76
2023/03/29 18:14:36;;;;;;;;;;;;;;;;;;4995536;28;20301;-75
2023/03/29 18:17:22;;;;;;;;;;;;;;;;;;4988628;28;19918;-76
2023/03/29 18:20:10;;;;;;;;;;;;;;;;;;4999641;28;19921;-76
2023/03/29 18:22:56;;;;;;;;;;;;;;;;;;4990258;28;19926;-79
2023/03/29 18:25:43;;;;;;;;;;;;;;;;;;4997868;28;20282;-76
2023/03/29 18:28:29;;;;;;;;;;;;;;;;;;4991818;28;19914;-76
2023/03/29 18:31:16;;;;;;;;;;;;;;;;;;4994960;28;19926;-85
2023/03/29 18:34:02;;;;;;;;;;;;;;;;;;5002089;28;19921;-87
2023/03/29 18:36:49;;;;;;;;;;;;;;;;;;4994842;28;19922;-87
2023/03/29 18:39:35;;;;;;;;;;;;;;;;;;5006724;28;19937;-88
2023/03/29 18:42:22;;;;;;;;;;;;;;;;;;4999338;28;19924;-87
2023/03/29 18:45:09;;;;;;;;;;;;;;;;;;4998066;28;19929;-87
2023/03/29 18:47:55;;;;;;;;;;;;;;;;;;4999995;28;19918;-86
2023/03/29 18:50:43;;;;;;;;;;;;;;;;;;4995009;28;19936;-87
2023/03/29 18:53:30;;;;;;;;;;;;;;;;;;4995875;28;19917;-86
2023/03/29 18:56:16;;;;;;;;;;;;;;;;;;5003003;28;19944;-85
2023/03/29 18:59:05;;;;;;;;;;;;;;;;;;5003772;28;19936;-86